sensor_id;sensor_type;location;lat;lon;timestamp;pressure;altitude;pressure_sealevel;temperature;humidity
30598;BME280;17365;48.878;8.334;2022-11-30T00:00:19;100413.19;;;8.34;100.00
30598;BME280;17365;48.878;8.334;2022-11-30T00:02:45;100419.03;;;8.22;100.00
30598;BME280;17365;48.878;8.334;2022-11-30T00:05:11;100419.28;;;8.36;100.00
30598;BME280;17365;48.878;8.334;2022-11-30T00:07:37;100415.84;;;8.37;100.00
30598;BME280;17365;48.878;8.334;2022-11-30T00:10:04;100415.91;;;8.38;100.00
30598;BME280;17365;48.878;8.334;2022-11-30T00:12:29;100411.28;;;8.22;100.00
30598;BME280;17365;48.878;8.334;2022-11-30T00:14:55;100409.72;;;8.33;100.00
30598;BME280;17365;48.878;8.334;2022-11-30T00:17:20;100409.81;;;8.36;100.00
30598;BME280;17365;48.878;8.334;2022-11-30T00:19:45;100408.94;;;8.36;100.00
30598;BME280;17365;48.878;8.334;2022-11-30T00:22:10;100407.22;;;8.36;100.00
30598;BME280;17365;48.878;8.334;2022-11-30T00:24:36;100403.69;;;8.33;100.00
30598;BME280;17365;48.878;8.334;2022-11-30T00:27:01;100404.53;;;8.32;100.00
30598;BME280;17365;48.878;8.334;2022-11-30T00:29:26;100408.66;;;8.19;100.00
30598;BME280;17365;48.878;8.334;2022-11-30T00:31:52;100412.84;;;8.12;100.00
30598;BME280;17365;48.878;8.334;2022-11-30T00:34:17;100406.31;;;7.83;100.00
30598;BME280;17365;48.878;8.334;2022-11-30T00:36:42;100404.88;;;8.00;100.00
30598;BME280;17365;48.878;8.334;2022-11-30T00:39:07;100405.38;;;7.79;100.00
30598;BME280;17365;48.878;8.334;2022-11-30T00:41:33;100410.00;;;7.97;100.00
30598;BME280;17365;48.878;8.334;2022-11-30T00:43:58;100404.22;;;8.12;100.00
30598;BME280;17365;48.878;8.334;2022-11-30T00:46:23;100409.97;;;7.94;100.00
30598;BME280;17365;48.878;8.334;2022-11-30T00:48:49;100406.97;;;8.21;100.00
30598;BME280;17365;48.878;8.334;2022-11-30T00:51:14;100413.81;;;8.19;100.00
30598;BME280;17365;48.878;8.334;2022-11-30T00:53:39;100420.03;;;8.30;100.00
30598;BME280;17365;48.878;8.334;2022-11-30T00:56:06;100419.84;;;8.20;100.00
30598;BME280;17365;48.878;8.334;2022-11-30T00:58:31;100420.13;;;8.35;100.00
30598;BME280;17365;48.878;8.334;2022-11-30T01:00:57;100424.22;;;8.24;100.00
30598;BME280;17365;48.878;8.334;2022-11-30T01:03:22;100431.25;;;8.32;100.00
30598;BME280;17365;48.878;8.334;2022-11-30T01:05:47;100432.09;;;8.30;100.00
30598;BME280;17365;48.878;8.334;2022-11-30T01:08:13;100426.97;;;8.33;100.00
30598;BME280;17365;48.878;8.334;2022-11-30T01:10:40;100433.19;;;8.42;100.00
30598;BME280;17365;48.878;8.334;2022-11-30T01:13:06;100437.81;;;8.13;100.00
30598;BME280;17365;48.878;8.334;2022-11-30T01:15:40;100423.47;;;8.29;100.00
30598;BME280;17365;48.878;8.334;2022-11-30T01:18:06;100418.53;;;8.43;100.00
30598;BME280;17365;48.878;8.334;2022-11-30T01:20:32;100422.03;;;8.48;100.00
30598;BME280;17365;48.878;8.334;2022-11-30T01:22:57;100428.91;;;8.46;100.00
30598;BME280;17365;48.878;8.334;2022-11-30T01:25:23;100422.97;;;8.50;100.00
30598;BME280;17365;48.878;8.334;2022-11-30T01:27:49;100424.75;;;8.54;100.00
30598;BME280;17365;48.878;8.334;2022-11-30T01:30:15;100424.72;;;8.53;100.00
30598;BME280;17365;48.878;8.334;2022-11-30T01:32:40;100431.53;;;8.49;100.00
30598;BME280;17365;48.878;8.334;2022-11-30T01:35:06;100429.69;;;8.39;100.00
30598;BME280;17365;48.878;8.334;2022-11-30T01:37:33;100435.66;;;8.36;100.00
30598;BME280;17365;48.878;8.334;2022-11-30T01:39:58;100427.19;;;8.45;100.00
30598;BME280;17365;48.878;8.334;2022-11-30T01:42:23;100433.34;;;8.53;100.00
30598;BME280;17365;48.878;8.334;2022-11-30T01:44:57;100431.59;;;8.52;100.00
30598;BME280;17365;48.878;8.334;2022-11-30T01:47:29;100435.94;;;8.55;100.00
30598;BME280;17365;48.878;8.334;2022-11-30T01:50:08;100438.41;;;7.96;100.00
30598;BME280;17365;48.878;8.334;2022-11-30T01:52:38;100439.84;;;8.30;100.00
30598;BME280;17365;48.878;8.334;2022-11-30T01:55:15;100441.56;;;8.29;100.00
30598;BME280;17365;48.878;8.334;2022-11-30T01:57:47;100446.59;;;8.23;100.00
30598;BME280;17365;48.878;8.334;2022-11-30T02:00:16;100441.59;;;8.32;100.00
30598;BME280;17365;48.878;8.334;2022-11-30T02:02:43;100442.44;;;8.30;100.00
30598;BME280;17365;48.878;8.334;2022-11-30T02:05:12;100441.75;;;8.40;100.00
30598;BME280;17365;48.878;8.334;2022-11-30T02:07:37;100445.25;;;8.43;100.00
30598;BME280;17365;48.878;8.334;2022-11-30T02:10:03;100439.94;;;8.36;100.00
30598;BME280;17365;48.878;8.334;2022-11-30T02:15:11;100447.88;;;8.45;100.00
30598;BME280;17365;48.878;8.334;2022-11-30T02:18:09;100444.41;;;8.44;100.00
30598;BME280;17365;48.878;8.334;2022-11-30T02:20:49;100439.28;;;8.49;100.00
30598;BME280;17365;48.878;8.334;2022-11-30T02:23:30;100443.44;;;8.38;100.00
30598;BME280;17365;48.878;8.334;2022-11-30T02:29:05;100445.84;;;8.27;100.00
30598;BME280;17365;48.878;8.334;2022-11-30T02:32:01;100438.16;;;8.32;100.00
30598;BME280;17365;48.878;8.334;2022-11-30T02:34:29;100438.25;;;8.36;100.00
30598;BME280;17365;48.878;8.334;2022-11-30T02:36:57;100444.19;;;8.34;100.00
30598;BME280;17365;48.878;8.334;2022-11-30T02:39:24;100442.31;;;8.24;100.00
30598;BME280;17365;48.878;8.334;2022-11-30T02:41:49;100438.59;;;8.06;100.00
30598;BME280;17365;48.878;8.334;2022-11-30T02:44:14;100433.84;;;8.32;100.00
30598;BME280;17365;48.878;8.334;2022-11-30T02:49:40;100444.91;;;8.25;100.00
30598;BME280;17365;48.878;8.334;2022-11-30T02:52:09;100442.22;;;8.17;100.00
30598;BME280;17365;48.878;8.334;2022-11-30T02:54:35;100447.69;;;7.86;100.00
30598;BME280;17365;48.878;8.334;2022-11-30T02:57:00;100444.66;;;7.62;100.00
30598;BME280;17365;48.878;8.334;2022-11-30T02:59:26;100442.78;;;8.00;100.00
30598;BME280;17365;48.878;8.334;2022-11-30T03:01:52;100445.13;;;7.86;100.00
30598;BME280;17365;48.878;8.334;2022-11-30T03:04:17;100455.59;;;7.48;100.00
30598;BME280;17365;48.878;8.334;2022-11-30T03:06:42;100450.13;;;7.33;100.00
30598;BME280;17365;48.878;8.334;2022-11-30T03:09:07;100456.94;;;7.29;100.00
30598;BME280;17365;48.878;8.334;2022-11-30T03:11:33;100449.03;;;7.22;100.00
30598;BME280;17365;48.878;8.334;2022-11-30T03:13:58;100451.59;;;7.22;100.00
30598;BME280;17365;48.878;8.334;2022-11-30T03:16:23;100452.94;;;7.45;100.00
30598;BME280;17365;48.878;8.334;2022-11-30T03:18:49;100447.94;;;7.53;100.00
30598;BME280;17365;48.878;8.334;2022-11-30T03:21:14;100451.72;;;7.70;100.00
30598;BME280;17365;48.878;8.334;2022-11-30T03:23:39;100446.59;;;7.72;100.00
30598;BME280;17365;48.878;8.334;2022-11-30T03:26:06;100451.69;;;7.25;100.00
30598;BME280;17365;48.878;8.334;2022-11-30T03:28:32;100451.25;;;7.47;100.00
30598;BME280;17365;48.878;8.334;2022-11-30T03:30:58;100453.47;;;7.71;100.00
30598;BME280;17365;48.878;8.334;2022-11-30T03:33:23;100449.66;;;7.54;100.00
30598;BME280;17365;48.878;8.334;2022-11-30T03:36:00;100452.00;;;7.42;100.00
30598;BME280;17365;48.878;8.334;2022-11-30T03:38:26;100448.09;;;7.61;100.00
30598;BME280;17365;48.878;8.334;2022-11-30T03:41:02;100450.34;;;7.45;100.00
30598;BME280;17365;48.878;8.334;2022-11-30T03:43:28;100451.34;;;7.52;100.00
30598;BME280;17365;48.878;8.334;2022-11-30T03:45:53;100446.63;;;7.75;100.00
30598;BME280;17365;48.878;8.334;2022-11-30T03:48:18;100457.75;;;7.71;100.00
30598;BME280;17365;48.878;8.334;2022-11-30T03:50:44;100454.34;;;7.72;100.00
30598;BME280;17365;48.878;8.334;2022-11-30T03:53:17;100442.47;;;7.83;100.00
30598;BME280;17365;48.878;8.334;2022-11-30T03:55:43;100448.59;;;7.88;100.00
30598;BME280;17365;48.878;8.334;2022-11-30T03:58:08;100458.63;;;7.71;100.00
30598;BME280;17365;48.878;8.334;2022-11-30T04:00:34;100446.97;;;7.93;100.00
30598;BME280;17365;48.878;8.334;2022-11-30T04:02:59;100450.09;;;7.77;100.00
30598;BME280;17365;48.878;8.334;2022-11-30T04:05:24;100454.38;;;7.75;100.00
30598;BME280;17365;48.878;8.334;2022-11-30T04:07:49;100449.47;;;7.90;100.00
30598;BME280;17365;48.878;8.334;2022-11-30T04:10:15;100452.28;;;8.02;100.00
30598;BME280;17365;48.878;8.334;2022-11-30T04:12:40;100454.66;;;7.90;100.00
30598;BME280;17365;48.878;8.334;2022-11-30T04:15:06;100453.78;;;7.89;100.00
30598;BME280;17365;48.878;8.334;2022-11-30T04:17:31;100459.09;;;7.97;100.00
30598;BME280;17365;48.878;8.334;2022-11-30T04:19:56;100457.84;;;7.77;100.00
30598;BME280;17365;48.878;8.334;2022-11-30T04:22:22;100457.38;;;7.98;100.00
30598;BME280;17365;48.878;8.334;2022-11-30T04:24:47;100456.56;;;8.00;100.00
30598;BME280;17365;48.878;8.334;2022-11-30T04:27:12;100453.78;;;7.89;100.00
30598;BME280;17365;48.878;8.334;2022-11-30T04:29:37;100454.09;;;8.06;100.00
30598;BME280;17365;48.878;8.334;2022-11-30T04:32:03;100448.72;;;7.94;100.00
30598;BME280;17365;48.878;8.334;2022-11-30T04:34:28;100453.97;;;8.00;100.00
30598;BME280;17365;48.878;8.334;2022-11-30T04:36:55;100454.13;;;8.09;100.00
30598;BME280;17365;48.878;8.334;2022-11-30T04:39:20;100455.78;;;8.04;100.00
30598;BME280;17365;48.878;8.334;2022-11-30T04:41:46;100448.84;;;8.03;100.00
30598;BME280;17365;48.878;8.334;2022-11-30T04:44:12;100460.19;;;8.11;100.00
30598;BME280;17365;48.878;8.334;2022-11-30T04:46:37;100455.06;;;8.14;100.00
30598;BME280;17365;48.878;8.334;2022-11-30T04:49:02;100446.53;;;8.17;100.00
30598;BME280;17365;48.878;8.334;2022-11-30T04:51:27;100452.44;;;8.11;100.00
30598;BME280;17365;48.878;8.334;2022-11-30T04:53:53;100452.47;;;8.13;100.00
30598;BME280;17365;48.878;8.334;2022-11-30T04:56:18;100453.00;;;7.94;100.00
30598;BME280;17365;48.878;8.334;2022-11-30T04:58:43;100447.13;;;8.04;100.00
30598;BME280;17365;48.878;8.334;2022-11-30T05:01:09;100453.41;;;8.16;100.00
30598;BME280;17365;48.878;8.334;2022-11-30T05:03:34;100451.72;;;8.18;100.00
30598;BME280;17365;48.878;8.334;2022-11-30T05:05:59;100451.75;;;8.22;100.00
30598;BME280;17365;48.878;8.334;2022-11-30T05:08:25;100451.50;;;8.06;100.00
30598;BME280;17365;48.878;8.334;2022-11-30T05:10:52;100454.94;;;8.05;100.00
30598;BME280;17365;48.878;8.334;2022-11-30T05:13:17;100456.34;;;7.88;100.00
30598;BME280;17365;48.878;8.334;2022-11-30T05:15:44;100467.16;;;7.69;100.00
30598;BME280;17365;48.878;8.334;2022-11-30T05:18:10;100466.25;;;8.13;100.00
30598;BME280;17365;48.878;8.334;2022-11-30T05:20:35;100458.66;;;8.23;100.00
30598;BME280;17365;48.878;8.334;2022-11-30T05:23:00;100473.31;;;8.24;100.00
30598;BME280;17365;48.878;8.334;2022-11-30T05:25:26;100464.72;;;7.76;100.00
30598;BME280;17365;48.878;8.334;2022-11-30T05:27:51;100454.97;;;8.08;100.00
30598;BME280;17365;48.878;8.334;2022-11-30T05:30:16;100469.72;;;8.14;100.00
30598;BME280;17365;48.878;8.334;2022-11-30T05:32:42;100471.41;;;8.13;100.00
30598;BME280;17365;48.878;8.334;2022-11-30T05:35:07;100472.44;;;8.22;100.00
30598;BME280;17365;48.878;8.334;2022-11-30T05:37:33;100467.31;;;8.26;100.00
30598;BME280;17365;48.878;8.334;2022-11-30T05:39:58;100473.34;;;8.25;100.00
30598;BME280;17365;48.878;8.334;2022-11-30T05:42:23;100469.13;;;8.30;100.00
30598;BME280;17365;48.878;8.334;2022-11-30T05:44:49;100474.16;;;8.23;100.00
30598;BME280;17365;48.878;8.334;2022-11-30T05:47:14;100468.25;;;8.28;100.00
30598;BME280;17365;48.878;8.334;2022-11-30T05:49:39;100478.44;;;8.21;100.00
30598;BME280;17365;48.878;8.334;2022-11-30T05:52:05;100469.00;;;8.23;100.00
30598;BME280;17365;48.878;8.334;2022-11-30T05:54:30;100476.88;;;8.29;100.00
30598;BME280;17365;48.878;8.334;2022-11-30T05:56:55;100478.75;;;7.91;100.00
30598;BME280;17365;48.878;8.334;2022-11-30T05:59:21;100480.03;;;8.14;100.00
30598;BME280;17365;48.878;8.334;2022-11-30T06:01:47;100482.63;;;8.14;100.00
30598;BME280;17365;48.878;8.334;2022-11-30T06:04:12;100477.47;;;8.14;100.00
30598;BME280;17365;48.878;8.334;2022-11-30T06:06:38;100478.22;;;8.07;100.00
30598;BME280;17365;48.878;8.334;2022-11-30T06:09:03;100479.50;;;7.82;100.00
30598;BME280;17365;48.878;8.334;2022-11-30T06:11:28;100471.22;;;8.01;100.00
30598;BME280;17365;48.878;8.334;2022-11-30T06:13:53;100473.97;;;8.10;100.00
30598;BME280;17365;48.878;8.334;2022-11-30T06:16:19;100474.63;;;7.99;100.00
30598;BME280;17365;48.878;8.334;2022-11-30T06:18:44;100476.34;;;7.98;100.00
30598;BME280;17365;48.878;8.334;2022-11-30T06:21:10;100464.44;;;8.06;100.00
30598;BME280;17365;48.878;8.334;2022-11-30T06:23:36;100470.03;;;7.82;100.00
30598;BME280;17365;48.878;8.334;2022-11-30T06:26:05;100470.03;;;7.82;100.00
30598;BME280;17365;48.878;8.334;2022-11-30T06:28:31;100473.63;;;7.92;100.00
30598;BME280;17365;48.878;8.334;2022-11-30T06:30:58;100468.81;;;7.65;100.00
30598;BME280;17365;48.878;8.334;2022-11-30T06:33:24;100465.72;;;7.83;100.00
30598;BME280;17365;48.878;8.334;2022-11-30T06:35:49;100472.53;;;7.79;100.00
30598;BME280;17365;48.878;8.334;2022-11-30T06:38:15;100469.94;;;7.79;100.00
30598;BME280;17365;48.878;8.334;2022-11-30T06:40:40;100461.28;;;7.76;100.00
30598;BME280;17365;48.878;8.334;2022-11-30T06:43:05;100468.44;;;7.92;100.00
30598;BME280;17365;48.878;8.334;2022-11-30T06:45:31;100463.78;;;7.71;100.00
30598;BME280;17365;48.878;8.334;2022-11-30T06:47:57;100469.28;;;7.89;100.00
30598;BME280;17365;48.878;8.334;2022-11-30T06:50:23;100486.59;;;7.94;100.00
30598;BME280;17365;48.878;8.334;2022-11-30T06:52:48;100482.09;;;7.83;100.00
30598;BME280;17365;48.878;8.334;2022-11-30T06:55:14;100479.50;;;7.82;100.00
30598;BME280;17365;48.878;8.334;2022-11-30T06:57:39;100481.34;;;7.91;100.00
30598;BME280;17365;48.878;8.334;2022-11-30T07:00:05;100478.03;;;7.98;100.00
30598;BME280;17365;48.878;8.334;2022-11-30T07:02:32;100483.31;;;8.04;100.00
30598;BME280;17365;48.878;8.334;2022-11-30T07:04:57;100484.78;;;7.91;100.00
30598;BME280;17365;48.878;8.334;2022-11-30T07:07:22;100476.25;;;7.94;100.00
30598;BME280;17365;48.878;8.334;2022-11-30T07:09:49;100483.91;;;7.89;100.00
30598;BME280;17365;48.878;8.334;2022-11-30T07:12:14;100488.13;;;7.84;100.00
30598;BME280;17365;48.878;8.334;2022-11-30T07:14:40;100484.31;;;7.65;100.00
30598;BME280;17365;48.878;8.334;2022-11-30T07:17:05;100480.69;;;7.57;100.00
30598;BME280;17365;48.878;8.334;2022-11-30T07:19:31;100489.41;;;7.61;100.00
30598;BME280;17365;48.878;8.334;2022-11-30T07:21:58;100485.81;;;7.54;100.00
30598;BME280;17365;48.878;8.334;2022-11-30T07:24:23;100498.31;;;7.76;100.00
30598;BME280;17365;48.878;8.334;2022-11-30T07:27:07;100493.19;;;7.79;100.00
30598;BME280;17365;48.878;8.334;2022-11-30T07:29:32;100494.13;;;7.83;100.00
30598;BME280;17365;48.878;8.334;2022-11-30T07:31:57;100499.81;;;7.65;100.00
30598;BME280;17365;48.878;8.334;2022-11-30T07:34:23;100499.09;;;7.72;100.00
30598;BME280;17365;48.878;8.334;2022-11-30T07:36:48;100504.25;;;7.72;100.00
30598;BME280;17365;48.878;8.334;2022-11-30T07:39:14;100506.91;;;7.75;100.00
30598;BME280;17365;48.878;8.334;2022-11-30T07:41:40;100502.00;;;7.91;100.00
30598;BME280;17365;48.878;8.334;2022-11-30T07:44:07;100501.97;;;7.87;100.00
30598;BME280;17365;48.878;8.334;2022-11-30T07:46:34;100501.22;;;7.93;100.00
30598;BME280;17365;48.878;8.334;2022-11-30T07:49:04;100504.69;;;7.95;100.00
30598;BME280;17365;48.878;8.334;2022-11-30T07:51:30;100514.59;;;7.32;100.00
30598;BME280;17365;48.878;8.334;2022-11-30T07:53:56;100504.69;;;7.51;100.00
30598;BME280;17365;48.878;8.334;2022-11-30T07:56:22;100513.13;;;7.43;100.00
30598;BME280;17365;48.878;8.334;2022-11-30T07:58:49;100507.56;;;7.65;100.00
30598;BME280;17365;48.878;8.334;2022-11-30T08:01:17;100508.63;;;7.76;100.00
30598;BME280;17365;48.878;8.334;2022-11-30T08:03:43;100519.03;;;7.37;100.00
30598;BME280;17365;48.878;8.334;2022-11-30T08:06:14;100514.66;;;7.77;100.00
30598;BME280;17365;48.878;8.334;2022-11-30T08:08:42;100515.34;;;7.68;100.00
30598;BME280;17365;48.878;8.334;2022-11-30T08:11:10;100511.78;;;7.62;100.00
30598;BME280;17365;48.878;8.334;2022-11-30T08:13:36;100511.13;;;7.72;100.00
30598;BME280;17365;48.878;8.334;2022-11-30T08:16:03;100521.28;;;7.63;100.00
30598;BME280;17365;48.878;8.334;2022-11-30T08:18:29;100517.63;;;7.53;100.00
30598;BME280;17365;48.878;8.334;2022-11-30T08:20:58;100511.78;;;7.62;100.00
30598;BME280;17365;48.878;8.334;2022-11-30T08:23:27;100516.75;;;7.52;100.00
30598;BME280;17365;48.878;8.334;2022-11-30T08:25:52;100515.50;;;7.76;100.00
30598;BME280;17365;48.878;8.334;2022-11-30T08:28:17;100518.16;;;7.80;100.00
30598;BME280;17365;48.878;8.334;2022-11-30T08:30:42;100523.41;;;7.83;100.00
30598;BME280;17365;48.878;8.334;2022-11-30T08:33:08;100519.31;;;7.93;100.00
30598;BME280;17365;48.878;8.334;2022-11-30T08:35:33;100517.28;;;7.78;100.00
30598;BME280;17365;48.878;8.334;2022-11-30T08:37:58;100514.28;;;7.58;100.00
30598;BME280;17365;48.878;8.334;2022-11-30T08:40:24;100520.50;;;7.67;100.00
30598;BME280;17365;48.878;8.334;2022-11-30T08:42:49;100521.06;;;7.96;100.00
30598;BME280;17365;48.878;8.334;2022-11-30T08:45:14;100526.78;;;7.81;100.00
30598;BME280;17365;48.878;8.334;2022-11-30T08:47:40;100531.19;;;7.85;100.00
30598;BME280;17365;48.878;8.334;2022-11-30T08:50:05;100531.69;;;8.12;100.00
30598;BME280;17365;48.878;8.334;2022-11-30T08:52:30;100529.88;;;8.05;100.00
30598;BME280;17365;48.878;8.334;2022-11-30T08:54:56;100531.44;;;7.97;100.00
30598;BME280;17365;48.878;8.334;2022-11-30T08:57:21;100537.84;;;7.74;100.00
30598;BME280;17365;48.878;8.334;2022-11-30T08:59:47;100541.84;;;8.02;100.00
30598;BME280;17365;48.878;8.334;2022-11-30T09:02:14;100541.84;;;8.03;100.00
30598;BME280;17365;48.878;8.334;2022-11-30T09:04:42;100537.13;;;7.81;100.00
30598;BME280;17365;48.878;8.334;2022-11-30T09:07:08;100543.47;;;7.97;100.00
30598;BME280;17365;48.878;8.334;2022-11-30T09:09:34;100546.56;;;8.24;100.00
30598;BME280;17365;48.878;8.334;2022-11-30T09:11:59;100543.22;;;8.30;100.00
30598;BME280;17365;48.878;8.334;2022-11-30T09:14:25;100545.03;;;7.88;100.00
30598;BME280;17365;48.878;8.334;2022-11-30T09:16:52;100545.72;;;7.80;100.00
30598;BME280;17365;48.878;8.334;2022-11-30T09:19:17;100547.44;;;7.81;100.00
30598;BME280;17365;48.878;8.334;2022-11-30T09:21:42;100551.91;;;7.88;100.00
30598;BME280;17365;48.878;8.334;2022-11-30T09:24:08;100550.63;;;7.68;100.00
30598;BME280;17365;48.878;8.334;2022-11-30T09:26:34;100555.16;;;7.78;100.00
30598;BME280;17365;48.878;8.334;2022-11-30T09:28:59;100561.59;;;7.98;100.00
30598;BME280;17365;48.878;8.334;2022-11-30T09:31:25;100564.78;;;7.85;100.00
30598;BME280;17365;48.878;8.334;2022-11-30T09:33:51;100570.56;;;7.73;100.00
30598;BME280;17365;48.878;8.334;2022-11-30T09:36:19;100565.81;;;7.95;100.00
30598;BME280;17365;48.878;8.334;2022-11-30T09:38:45;100572.72;;;7.96;100.00
30598;BME280;17365;48.878;8.334;2022-11-30T09:47:03;100565.59;;;7.82;100.00
30598;BME280;17365;48.878;8.334;2022-11-30T09:49:38;100565.59;;;7.82;100.00
30598;BME280;17365;48.878;8.334;2022-11-30T09:52:11;100561.84;;;8.12;100.00
30598;BME280;17365;48.878;8.334;2022-11-30T09:54:42;100559.47;;;7.79;100.00
30598;BME280;17365;48.878;8.334;2022-11-30T09:57:24;100559.81;;;7.53;100.00
30598;BME280;17365;48.878;8.334;2022-11-30T10:00:02;100554.09;;;8.13;100.00
30598;BME280;17365;48.878;8.334;2022-11-30T10:02:31;100555.13;;;8.22;100.00
30598;BME280;17365;48.878;8.334;2022-11-30T10:04:57;100551.19;;;8.39;100.00
30598;BME280;17365;48.878;8.334;2022-11-30T10:07:55;100552.81;;;8.35;100.00
30598;BME280;17365;48.878;8.334;2022-11-30T10:25:57;100546.78;;;8.35;100.00
30598;BME280;17365;48.878;8.334;2022-11-30T10:30:54;100554.44;;;8.30;100.00
30598;BME280;17365;48.878;8.334;2022-11-30T10:33:26;100545.47;;;8.58;100.00
30598;BME280;17365;48.878;8.334;2022-11-30T10:36:02;100542.16;;;8.67;100.00
30598;BME280;17365;48.878;8.334;2022-11-30T10:38:32;100540.50;;;8.24;100.00
30598;BME280;17365;48.878;8.334;2022-11-30T10:41:04;100533.34;;;8.54;100.00
30598;BME280;17365;48.878;8.334;2022-11-30T10:43:39;100535.22;;;8.64;100.00
30598;BME280;17365;48.878;8.334;2022-11-30T10:46:17;100534.41;;;8.67;100.00
30598;BME280;17365;48.878;8.334;2022-11-30T10:48:48;100525.13;;;8.80;100.00
30598;BME280;17365;48.878;8.334;2022-11-30T10:51:15;100524.09;;;8.70;100.00
30598;BME280;17365;48.878;8.334;2022-11-30T10:53:41;100526.75;;;8.73;100.00
30598;BME280;17365;48.878;8.334;2022-11-30T10:56:11;100518.25;;;8.82;100.00
30598;BME280;17365;48.878;8.334;2022-11-30T10:58:39;100521.47;;;8.65;100.00
30598;BME280;17365;48.878;8.334;2022-11-30T11:01:11;100516.16;;;8.59;100.00
30598;BME280;17365;48.878;8.334;2022-11-30T11:06:46;100518.91;;;8.68;100.00
30598;BME280;17365;48.878;8.334;2022-11-30T11:09:32;100520.16;;;8.39;100.00
30598;BME280;17365;48.878;8.334;2022-11-30T11:12:02;100506.44;;;8.43;100.00
30598;BME280;17365;48.878;8.334;2022-11-30T11:14:27;100509.59;;;8.80;100.00
30598;BME280;17365;48.878;8.334;2022-11-30T11:17:04;100501.09;;;8.85;100.00
30598;BME280;17365;48.878;8.334;2022-11-30T11:19:41;100510.38;;;8.72;100.00
30598;BME280;17365;48.878;8.334;2022-11-30T11:22:22;100504.69;;;8.96;100.00
30598;BME280;17365;48.878;8.334;2022-11-30T11:24:50;100501.56;;;9.20;100.00
30598;BME280;17365;48.878;8.334;2022-11-30T11:27:25;100495.75;;;9.37;100.00
30598;BME280;17365;48.878;8.334;2022-11-30T11:30:01;100502.63;;;8.72;100.00
30598;BME280;17365;48.878;8.334;2022-11-30T11:32:27;100500.56;;;9.09;100.00
30598;BME280;17365;48.878;8.334;2022-11-30T11:34:54;100505.03;;;9.19;100.00
30598;BME280;17365;48.878;8.334;2022-11-30T11:37:21;100509.53;;;9.36;100.00
30598;BME280;17365;48.878;8.334;2022-11-30T11:42:30;100509.34;;;9.20;100.00
30598;BME280;17365;48.878;8.334;2022-11-30T11:44:57;100507.66;;;9.25;100.00
30598;BME280;17365;48.878;8.334;2022-11-30T11:47:36;100509.34;;;9.20;100.00
30598;BME280;17365;48.878;8.334;2022-11-30T11:52:42;100520.22;;;8.42;100.00
30598;BME280;17365;48.878;8.334;2022-11-30T11:55:13;100508.53;;;8.65;100.00
30598;BME280;17365;48.878;8.334;2022-11-30T11:57:52;100508.91;;;8.90;100.00
30598;BME280;17365;48.878;8.334;2022-11-30T12:00:20;100507.03;;;8.81;100.00
30598;BME280;17365;48.878;8.334;2022-11-30T12:03:00;100500.22;;;8.85;100.00
30598;BME280;17365;48.878;8.334;2022-11-30T12:05:30;100500.25;;;8.88;100.00
30598;BME280;17365;48.878;8.334;2022-11-30T12:11:28;100502.38;;;8.59;100.00
30598;BME280;17365;48.878;8.334;2022-11-30T12:13:51;100499.72;;;8.54;100.00
30598;BME280;17365;48.878;8.334;2022-11-30T12:19:13;100508.47;;;8.61;100.00
30598;BME280;17365;48.878;8.334;2022-11-30T12:21:50;100506.78;;;8.63;100.00
30598;BME280;17365;48.878;8.334;2022-11-30T12:27:11;100507.81;;;8.74;100.00
30598;BME280;17365;48.878;8.334;2022-11-30T12:29:50;100503.84;;;8.43;100.00
30598;BME280;17365;48.878;8.334;2022-11-30T12:33:11;100504.09;;;8.58;100.00
30598;BME280;17365;48.878;8.334;2022-11-30T12:36:07;100506.44;;;8.44;100.00
30598;BME280;17365;48.878;8.334;2022-11-30T12:38:46;100503.50;;;8.74;100.00
30598;BME280;17365;48.878;8.334;2022-11-30T12:58:46;100511.78;;;8.54;100.00
30598;BME280;17365;48.878;8.334;2022-11-30T13:01:33;100503.69;;;8.88;100.00
30598;BME280;17365;48.878;8.334;2022-11-30T13:04:13;100511.47;;;8.35;100.00
30598;BME280;17365;48.878;8.334;2022-11-30T13:06:46;100509.56;;;8.77;100.00
30598;BME280;17365;48.878;8.334;2022-11-30T13:09:22;100515.97;;;8.47;100.00
30598;BME280;17365;48.878;8.334;2022-11-30T13:12:00;100512.88;;;8.68;100.00
30598;BME280;17365;48.878;8.334;2022-11-30T13:14:27;100512.09;;;8.73;100.00
30598;BME280;17365;48.878;8.334;2022-11-30T13:17:04;100508.13;;;8.95;100.00
30598;BME280;17365;48.878;8.334;2022-11-30T13:19:52;100516.25;;;8.64;99.24
30598;BME280;17365;48.878;8.334;2022-11-30T13:22:59;100514.06;;;8.37;97.85
30598;BME280;17365;48.878;8.334;2022-11-30T13:25:47;100514.03;;;8.87;98.44
30598;BME280;17365;48.878;8.334;2022-11-30T13:31:22;100503.97;;;9.07;97.06
30598;BME280;17365;48.878;8.334;2022-11-30T13:33:57;100510.94;;;9.11;96.45
30598;BME280;17365;48.878;8.334;2022-11-30T13:39:22;100507.63;;;9.21;96.49
30598;BME280;17365;48.878;8.334;2022-11-30T13:44:30;100504.16;;;9.20;95.04
30598;BME280;17365;48.878;8.334;2022-11-30T13:46:57;100513.00;;;8.75;95.58
30598;BME280;17365;48.878;8.334;2022-11-30T13:49:27;100512.19;;;8.80;97.22
30598;BME280;17365;48.878;8.334;2022-11-30T13:51:54;100511.47;;;8.88;96.77
30598;BME280;17365;48.878;8.334;2022-11-30T13:59:58;100517.16;;;8.67;98.93
30598;BME280;17365;48.878;8.334;2022-11-30T14:07:43;100516.69;;;8.91;98.02
30598;BME280;17365;48.878;8.334;2022-11-30T14:13:25;100519.00;;;8.73;99.78
30598;BME280;17365;48.878;8.334;2022-11-30T14:15:52;100515.66;;;8.82;99.75
30598;BME280;17365;48.878;8.334;2022-11-30T14:23:20;100519.22;;;8.87;99.49
30598;BME280;17365;48.878;8.334;2022-11-30T14:25:49;100518.50;;;8.97;99.22
30598;BME280;17365;48.878;8.334;2022-11-30T14:28:18;100520.06;;;8.86;99.60
30598;BME280;17365;48.878;8.334;2022-11-30T14:30:45;100520.06;;;8.87;99.38